createdAt,value
2022-10-21T00:00:32.234Z,2.40
2022-10-21T00:03:25.883Z,5.10
2022-10-21T00:05:58.308Z,1.70
2022-10-21T00:08:30.840Z,3.80
2022-10-21T00:11:05.186Z,4.30
2022-10-21T00:13:40.022Z,2.90
2022-10-21T00:16:14.908Z,5.70
2022-10-21T00:18:48.709Z,11.10
2022-10-21T00:21:23.028Z,5.40
2022-10-21T00:23:55.100Z,2.70
2022-10-21T00:26:27.187Z,2.50
2022-10-21T00:29:00.171Z,2.10
2022-10-21T00:31:33.964Z,5.00
2022-10-21T00:34:06.347Z,1.90
2022-10-21T00:36:38.417Z,3.70
2022-10-21T00:39:10.557Z,2.30
2022-10-21T00:41:42.670Z,3.40
2022-10-21T00:44:16.432Z,2.40
2022-10-21T00:46:52.188Z,1.40
2022-10-21T00:49:31.202Z,2.50
2022-10-21T00:52:06.144Z,1.60
2022-10-21T00:54:39.733Z,2.30
2022-10-21T00:57:12.931Z,4.20
2022-10-21T00:59:49.260Z,1.80
2022-10-21T01:02:21.442Z,5.40
2022-10-21T01:04:57.929Z,1.90
2022-10-21T01:07:30.513Z,6.40
2022-10-21T01:10:02.609Z,3.70
2022-10-21T01:12:42.631Z,2.40
2022-10-21T01:15:22.058Z,3.50
2022-10-21T01:18:02.287Z,2.30
2022-10-21T01:20:50.991Z,4.40
2022-10-21T01:24:16.181Z,8.10
2022-10-21T01:27:12.719Z,5.80
2022-10-21T01:30:16.133Z,1.90
2022-10-21T01:33:05.957Z,10.30
2022-10-21T01:35:47.400Z,2.80
2022-10-21T01:38:25.533Z,3.50
2022-10-21T01:41:03.144Z,4.10
2022-10-21T01:43:43.271Z,2.80
2022-10-21T01:46:20.432Z,2.90
2022-10-21T01:48:56.798Z,3.70
2022-10-21T01:51:30.511Z,2.50
2022-10-21T01:54:08.796Z,8.10
2022-10-21T01:56:44.360Z,4.60
2022-10-21T01:59:18.161Z,2.70
2022-10-21T02:01:53.209Z,3.70
2022-10-21T02:04:27.726Z,4.20
2022-10-21T02:06:59.999Z,6.60
2022-10-21T02:12:11.676Z,3.60
2022-10-21T02:14:47.153Z,2.70
2022-10-21T02:17:22.900Z,4.20
2022-10-21T02:19:56.119Z,4.40
2022-10-21T02:22:28.980Z,3.20
2022-10-21T02:25:07.133Z,2.70
2022-10-21T02:27:39.344Z,3.10
2022-10-21T02:30:13.412Z,6.10
2022-10-21T02:32:51.196Z,2.40
2022-10-21T02:35:41.480Z,3.10
2022-10-21T02:38:23.146Z,5.40
2022-10-21T02:40:59.143Z,3.60
2022-10-21T02:43:35.807Z,5.80
2022-10-21T02:46:12.736Z,3.80
2022-10-21T02:48:48.090Z,2.30
2022-10-21T02:51:20.246Z,7.30
2022-10-21T02:53:52.327Z,3.50
2022-10-21T02:56:24.524Z,5.50
2022-10-21T02:58:56.647Z,9.30
2022-10-21T03:01:28.869Z,9.10
2022-10-21T03:04:01.032Z,3.70
2022-10-21T03:06:33.236Z,7.40
2022-10-21T03:09:05.856Z,3.40
2022-10-21T03:11:37.968Z,4.20
2022-10-21T03:14:10.135Z,6.10
2022-10-21T03:16:42.201Z,2.30
2022-10-21T03:19:14.689Z,5.80
2022-10-21T03:21:46.781Z,4.80
2022-10-21T03:24:27.811Z,3.00
2022-10-21T03:27:00.946Z,4.30
2022-10-21T03:29:33.055Z,3.90
2022-10-21T03:32:05.382Z,3.20
2022-10-21T03:34:37.488Z,4.80
2022-10-21T03:37:09.576Z,5.60
2022-10-21T03:39:41.704Z,4.10
2022-10-21T03:42:13.780Z,7.80
2022-10-21T03:44:45.935Z,4.40
2022-10-21T03:47:18.224Z,5.20
2022-10-21T03:49:50.404Z,4.80
2022-10-21T03:52:22.570Z,19.50
2022-10-21T03:54:54.636Z,2.60
2022-10-21T03:57:26.832Z,2.90
2022-10-21T03:59:59.015Z,7.70
2022-10-21T04:02:31.243Z,2.40
2022-10-21T04:05:03.395Z,5.60
2022-10-21T04:07:35.490Z,5.60
2022-10-21T04:10:09.448Z,7.20
2022-10-21T04:12:41.817Z,8.10
2022-10-21T04:15:14.934Z,4.60
2022-10-21T04:17:48.405Z,3.90
2022-10-21T04:20:21.078Z,4.20
2022-10-21T04:22:53.208Z,4.50
2022-10-21T04:25:25.280Z,5.20
2022-10-21T04:27:57.413Z,6.00
2022-10-21T04:30:29.580Z,5.60
2022-10-21T04:33:01.688Z,5.40
2022-10-21T04:35:33.895Z,4.20
2022-10-21T04:38:05.976Z,7.00
2022-10-21T04:40:38.123Z,6.40
2022-10-21T04:43:10.217Z,6.80
2022-10-21T04:45:42.786Z,3.50
2022-10-21T04:48:14.932Z,6.00
2022-10-21T04:50:49.238Z,7.20
2022-10-21T04:53:21.895Z,10.30
2022-10-21T04:55:55.382Z,7.50
2022-10-21T04:58:27.481Z,3.90
2022-10-21T05:00:59.720Z,12.70
2022-10-21T05:03:32.079Z,5.60
2022-10-21T05:06:04.388Z,5.00
2022-10-21T05:08:36.622Z,2.80
2022-10-21T05:11:08.771Z,5.00
2022-10-21T05:13:40.872Z,5.60
2022-10-21T05:16:13.027Z,4.70
2022-10-21T05:18:45.194Z,3.20
2022-10-21T05:21:17.390Z,5.50
2022-10-21T05:23:49.435Z,4.00
2022-10-21T05:26:21.529Z,5.90
2022-10-21T05:28:53.612Z,5.10
2022-10-21T05:31:25.903Z,6.30
2022-10-21T05:33:58.339Z,5.50
2022-10-21T05:36:30.559Z,41.60
2022-10-21T05:39:03.033Z,7.00
2022-10-21T05:41:35.088Z,4.80
2022-10-21T05:44:07.384Z,3.80
2022-10-21T05:46:39.403Z,6.70
2022-10-21T05:49:13.036Z,4.70
2022-10-21T05:51:45.933Z,7.70
2022-10-21T05:54:18.090Z,4.90
2022-10-21T05:56:50.184Z,5.30
2022-10-21T05:59:22.729Z,4.70
2022-10-21T06:01:54.841Z,6.70
2022-10-21T06:04:27.191Z,5.10
2022-10-21T06:06:59.374Z,8.30
2022-10-21T06:09:31.559Z,10.10
2022-10-21T06:12:03.618Z,10.20
2022-10-21T06:14:36.848Z,11.20
2022-10-21T06:17:08.883Z,6.30
2022-10-21T06:19:40.934Z,10.30
2022-10-21T06:22:13.140Z,7.10
2022-10-21T06:24:45.376Z,5.80
2022-10-21T06:27:17.669Z,7.30
2022-10-21T06:29:49.974Z,5.20
2022-10-21T06:32:22.078Z,5.60
2022-10-21T06:34:54.440Z,11.70
2022-10-21T06:37:26.524Z,6.20
2022-10-21T06:39:58.696Z,6.20
2022-10-21T06:42:30.807Z,4.60
2022-10-21T06:45:02.931Z,4.30
2022-10-21T06:47:35.109Z,8.40
2022-10-21T06:50:08.536Z,6.90
2022-10-21T06:52:40.628Z,18.50
2022-10-21T06:55:12.860Z,8.40
2022-10-21T06:57:45.087Z,13.50
2022-10-21T07:00:18.035Z,11.20
2022-10-21T07:02:50.219Z,6.30
2022-10-21T07:05:22.367Z,4.30
2022-10-21T07:07:54.446Z,5.50
2022-10-21T07:10:26.682Z,7.10
2022-10-21T07:12:59.392Z,7.30
2022-10-21T07:15:31.600Z,6.60
2022-10-21T07:18:03.796Z,8.10
2022-10-21T07:20:36.960Z,11.70
2022-10-21T07:23:09.115Z,11.10
2022-10-21T07:25:41.236Z,5.30
2022-10-21T07:28:13.357Z,5.80
2022-10-21T07:30:46.339Z,5.00
2022-10-21T07:33:18.745Z,4.90
2022-10-21T07:35:51.211Z,6.90
2022-10-21T07:38:23.415Z,9.70
2022-10-21T07:40:55.516Z,9.90
2022-10-21T07:43:27.720Z,6.30
2022-10-21T07:46:03.184Z,9.10
2022-10-21T07:48:38.909Z,6.60
2022-10-21T07:51:13.747Z,7.10
2022-10-21T07:53:45.911Z,5.20
2022-10-21T07:56:20.212Z,5.70
2022-10-21T07:58:52.471Z,7.80
2022-10-21T08:01:24.894Z,7.40
2022-10-21T08:03:58.095Z,10.50
2022-10-21T08:06:30.891Z,7.40
2022-10-21T08:09:05.535Z,5.80
2022-10-21T08:11:37.733Z,6.00
2022-10-21T08:14:11.216Z,17.40
2022-10-21T08:16:43.797Z,5.10
2022-10-21T08:19:21.320Z,4.30
2022-10-21T08:21:53.413Z,5.40
2022-10-21T08:24:27.096Z,5.10
2022-10-21T08:26:59.169Z,11.40
2022-10-21T08:29:32.106Z,6.60
2022-10-21T08:32:06.123Z,5.60
2022-10-21T08:34:38.437Z,6.70
2022-10-21T08:37:10.536Z,15.30
2022-10-21T08:39:42.679Z,5.60
2022-10-21T08:42:18.263Z,7.40
2022-10-21T08:44:58.025Z,5.60
2022-10-21T08:47:37.179Z,7.30
2022-10-21T08:50:16.799Z,6.30
2022-10-21T08:52:51.240Z,5.60
2022-10-21T08:55:29.939Z,4.10
2022-10-21T08:58:03.871Z,5.00
2022-10-21T09:00:41.340Z,4.60
2022-10-21T09:03:25.148Z,10.60
2022-10-21T09:06:15.208Z,6.50
2022-10-21T09:09:01.011Z,7.00
2022-10-21T09:11:44.594Z,7.70
2022-10-21T09:14:56.845Z,6.30
2022-10-21T09:17:42.283Z,2.80
2022-10-21T09:20:28.543Z,3.80
2022-10-21T09:25:43.761Z,5.80
2022-10-21T09:28:17.491Z,19.30
2022-10-21T09:30:50.189Z,22.80
2022-10-21T09:33:26.717Z,6.30
2022-10-21T09:36:04.850Z,3.20
2022-10-21T09:38:44.760Z,5.80
2022-10-21T09:41:19.417Z,5.10
2022-10-21T09:43:52.427Z,9.60
2022-10-21T09:46:24.988Z,4.60
2022-10-21T09:51:52.194Z,5.60
2022-10-21T09:54:27.647Z,3.00
2022-10-21T09:57:05.566Z,4.60
2022-10-21T09:59:51.049Z,6.00
2022-10-21T10:02:29.544Z,3.90
2022-10-21T10:05:01.661Z,7.10
2022-10-21T10:07:38.457Z,5.00
2022-10-21T10:10:32.287Z,3.50
2022-10-21T10:13:04.817Z,13.90
2022-10-21T10:15:38.817Z,8.30
2022-10-21T10:18:23.331Z,4.80
2022-10-21T10:21:11.549Z,9.50
2022-10-21T10:23:51.926Z,5.20
2022-10-21T10:26:29.338Z,4.80
2022-10-21T10:29:04.283Z,8.60
2022-10-21T10:31:38.582Z,4.90
2022-10-21T10:34:19.656Z,7.40
2022-10-21T10:37:01.143Z,6.20
2022-10-21T10:39:36.377Z,9.00
2022-10-21T10:42:10.537Z,7.40
2022-10-21T10:44:45.536Z,13.50
2022-10-21T10:47:26.320Z,9.30
2022-10-21T10:49:58.550Z,4.90
2022-10-21T10:52:30.723Z,4.90
2022-10-21T10:55:20.340Z,3.70
2022-10-21T10:58:10.410Z,5.40
2022-10-21T11:00:51.117Z,2.80
2022-10-21T11:03:29.188Z,5.40
2022-10-21T11:06:14.858Z,6.90
2022-10-21T11:08:54.008Z,7.40
2022-10-21T11:11:29.930Z,3.40
2022-10-21T11:14:02.183Z,4.60
2022-10-21T11:17:00.887Z,11.20
2022-10-21T11:19:44.023Z,8.90
2022-10-21T11:22:23.641Z,3.20
2022-10-21T11:25:05.812Z,6.80
2022-10-21T11:28:07.381Z,4.20
2022-10-21T11:30:56.289Z,4.50
2022-10-21T11:33:39.458Z,7.90
2022-10-21T11:36:21.483Z,5.00
2022-10-21T11:39:32.440Z,14.10
2022-10-21T11:42:15.435Z,5.20
2022-10-21T11:45:02.864Z,3.90
2022-10-21T11:47:44.728Z,6.20
2022-10-21T11:50:25.756Z,5.00
2022-10-21T11:53:17.545Z,9.00
2022-10-21T11:55:59.852Z,3.80
2022-10-21T11:58:49.719Z,12.00
2022-10-21T12:01:38.236Z,5.00
2022-10-21T12:04:33.422Z,5.40
2022-10-21T12:07:23.603Z,4.00
2022-10-21T12:10:00.966Z,6.00
2022-10-21T12:12:39.699Z,6.90
2022-10-21T12:15:20.356Z,3.80
2022-10-21T12:17:53.419Z,7.30
2022-10-21T12:20:27.942Z,7.60
2022-10-21T12:23:04.955Z,8.50
2022-10-21T12:25:45.733Z,6.50
2022-10-21T12:28:25.799Z,4.50
2022-10-21T12:31:03.977Z,7.40
2022-10-21T12:33:42.097Z,4.30
2022-10-21T12:36:39.988Z,5.30
2022-10-21T12:39:19.701Z,9.00
2022-10-21T12:42:05.488Z,5.30
2022-10-21T12:44:41.008Z,5.50
2022-10-21T12:47:30.608Z,4.20
2022-10-21T12:50:20.301Z,9.20
2022-10-21T12:53:08.680Z,3.50
2022-10-21T12:55:42.904Z,13.50
2022-10-21T12:58:26.892Z,4.90
2022-10-21T13:01:02.551Z,8.20
2022-10-21T13:06:56.348Z,8.60
2022-10-21T13:09:41.766Z,6.00
2022-10-21T13:12:30.729Z,8.60
2022-10-21T13:15:23.878Z,5.20
2022-10-21T13:17:58.050Z,5.70
2022-10-21T13:20:58.627Z,5.20
2022-10-21T13:23:41.552Z,5.60
2022-10-21T13:26:30.236Z,9.50
2022-10-21T13:29:09.390Z,5.60
2022-10-21T13:31:43.914Z,7.00
2022-10-21T13:34:32.944Z,4.80
2022-10-21T13:37:16.872Z,3.40
2022-10-21T13:39:53.393Z,4.30
2022-10-21T13:42:25.697Z,10.20
2022-10-21T13:45:05.425Z,10.20
2022-10-21T13:47:38.285Z,4.00
2022-10-21T13:50:18.551Z,5.20
2022-10-21T13:52:50.699Z,7.20
2022-10-21T13:55:25.224Z,11.60
2022-10-21T13:57:58.280Z,5.80
2022-10-21T14:00:33.047Z,4.40
2022-10-21T14:03:07.276Z,4.20
2022-10-21T14:05:47.108Z,8.00
2022-10-21T14:08:25.507Z,4.30
2022-10-21T14:11:02.011Z,8.10
2022-10-21T14:13:38.096Z,6.90
2022-10-21T14:16:11.508Z,11.30
2022-10-21T14:18:49.576Z,12.00
2022-10-21T14:21:25.407Z,8.10
2022-10-21T14:26:31.809Z,3.90
2022-10-21T14:29:06.478Z,9.00
2022-10-21T14:31:42.921Z,7.40
2022-10-21T14:34:26.480Z,2.60
2022-10-21T14:37:09.536Z,6.60
2022-10-21T14:39:44.316Z,5.40
2022-10-21T14:42:20.772Z,9.30
2022-10-21T14:45:01.608Z,3.40
2022-10-21T14:47:33.912Z,30.10
2022-10-21T14:50:06.850Z,9.10
2022-10-21T14:52:43.673Z,10.10
2022-10-21T14:55:18.583Z,8.40
2022-10-21T14:57:53.165Z,10.30
2022-10-21T15:00:30.113Z,9.70
2022-10-21T15:03:03.033Z,14.00
2022-10-21T15:05:39.824Z,8.20
2022-10-21T15:08:34.404Z,12.70
2022-10-21T15:11:37.159Z,6.80
2022-10-21T15:14:32.004Z,13.50
2022-10-21T15:17:10.537Z,9.00
2022-10-21T15:19:48.757Z,8.00
2022-10-21T15:22:30.962Z,5.50
2022-10-21T15:25:09.164Z,9.30
2022-10-21T15:27:43.973Z,9.50
2022-10-21T15:30:21.278Z,9.90
2022-10-21T15:32:55.230Z,15.30
2022-10-21T15:35:27.364Z,7.20
2022-10-21T15:37:59.488Z,7.50
2022-10-21T15:40:34.643Z,12.10
2022-10-21T15:43:06.916Z,9.80
2022-10-21T15:45:41.980Z,7.60
2022-10-21T15:48:14.577Z,8.10
2022-10-21T15:50:46.748Z,8.50
2022-10-21T15:53:18.828Z,9.10
2022-10-21T15:55:50.991Z,12.50
2022-10-21T15:58:23.136Z,7.70
2022-10-21T16:00:55.309Z,12.00
2022-10-21T16:03:28.292Z,5.80
2022-10-21T16:06:00.941Z,12.00
2022-10-21T16:08:33.242Z,6.60
2022-10-21T16:11:05.600Z,9.20
2022-10-21T16:13:37.780Z,8.00
2022-10-21T16:16:18.837Z,17.90
2022-10-21T16:18:51.424Z,14.70
2022-10-21T16:21:24.617Z,11.70
2022-10-21T16:23:58.510Z,8.00
2022-10-21T16:26:33.280Z,8.30
2022-10-21T16:29:05.591Z,7.40
2022-10-21T16:31:37.856Z,10.40
2022-10-21T16:34:10.105Z,7.50
2022-10-21T16:36:42.268Z,12.40
2022-10-21T16:39:17.245Z,6.60
2022-10-21T16:41:49.599Z,6.20
2022-10-21T16:44:22.009Z,10.90
2022-10-21T16:46:55.564Z,6.60
2022-10-21T16:49:29.632Z,7.60
2022-10-21T16:52:02.376Z,15.20
2022-10-21T16:54:35.629Z,12.00
2022-10-21T16:57:08.476Z,9.80
2022-10-21T16:59:40.645Z,12.40
2022-10-21T17:02:17.787Z,14.80
2022-10-21T17:04:50.024Z,13.70
2022-10-21T17:07:22.546Z,8.30
2022-10-21T17:09:54.729Z,10.80
2022-10-21T17:12:26.954Z,10.90
2022-10-21T17:14:59.113Z,20.60
2022-10-21T17:17:31.287Z,13.90
2022-10-21T17:20:03.520Z,10.30
2022-10-21T17:22:35.711Z,12.40
2022-10-21T17:25:08.942Z,16.80
2022-10-21T17:27:42.024Z,12.40
2022-10-21T17:30:15.185Z,8.80
2022-10-21T17:32:47.957Z,15.30
2022-10-21T17:35:20.132Z,9.50
2022-10-21T17:37:53.405Z,11.40
2022-10-21T17:40:27.485Z,14.00
2022-10-21T17:43:00.173Z,10.60
2022-10-21T17:45:32.320Z,10.50
2022-10-21T17:48:04.474Z,10.50
2022-10-21T17:50:38.730Z,9.10
2022-10-21T17:53:10.986Z,14.40
2022-10-21T17:55:43.185Z,18.00
2022-10-21T17:58:15.384Z,18.00
2022-10-21T18:00:47.580Z,16.80
2022-10-21T18:03:20.017Z,21.50
2022-10-21T18:05:52.182Z,13.40
2022-10-21T18:08:24.605Z,16.00
2022-10-21T18:10:58.393Z,11.10
2022-10-21T18:13:32.545Z,11.60
2022-10-21T18:16:08.852Z,12.40
2022-10-21T18:21:20.304Z,11.50
2022-10-21T18:23:54.392Z,14.30
2022-10-21T18:26:29.668Z,10.10
2022-10-21T18:29:03.584Z,11.10
2022-10-21T18:31:37.813Z,19.20
2022-10-21T18:34:10.380Z,12.80
2022-10-21T18:36:43.418Z,16.60
2022-10-21T18:39:16.354Z,13.00
2022-10-21T18:41:48.481Z,27.40
2022-10-21T18:44:20.710Z,18.60
2022-10-21T18:46:55.306Z,16.00
2022-10-21T18:49:28.343Z,23.40
2022-10-21T18:52:00.523Z,20.60
2022-10-21T18:54:32.652Z,18.90
2022-10-21T18:57:07.674Z,22.10
2022-10-21T18:59:40.158Z,18.70
2022-10-21T19:02:18.860Z,20.60
2022-10-21T19:04:51.216Z,22.70
2022-10-21T19:07:23.677Z,30.50
2022-10-21T19:09:56.007Z,22.20
2022-10-21T19:12:28.259Z,25.70
2022-10-21T19:15:00.388Z,25.40
2022-10-21T19:17:32.908Z,29.50
2022-10-21T19:20:05.441Z,28.90
2022-10-21T19:22:37.800Z,33.00
2022-10-21T19:25:11.443Z,35.30
2022-10-21T19:27:43.584Z,33.40
2022-10-21T19:30:16.164Z,37.70
2022-10-21T19:32:48.353Z,33.60
2022-10-21T19:35:20.776Z,41.80
2022-10-21T19:37:52.884Z,43.20
2022-10-21T19:40:25.034Z,44.20
2022-10-21T19:42:57.446Z,45.10
2022-10-21T19:45:29.600Z,42.60
2022-10-21T19:48:02.016Z,43.30
2022-10-21T19:50:34.210Z,49.80
2022-10-21T19:53:06.337Z,47.10
2022-10-21T19:55:38.581Z,50.80
2022-10-21T19:58:10.708Z,48.20
2022-10-21T20:00:42.836Z,46.80
2022-10-21T20:03:14.992Z,50.40
2022-10-21T20:05:47.182Z,45.50
2022-10-21T20:08:19.463Z,50.10
2022-10-21T20:11:02.952Z,55.30
2022-10-21T20:13:35.541Z,49.80
2022-10-21T20:16:08.268Z,46.30
2022-10-21T20:18:40.787Z,39.60
2022-10-21T20:21:13.013Z,45.80
2022-10-21T20:23:45.141Z,53.70
2022-10-21T20:26:17.498Z,50.10
2022-10-21T20:28:51.010Z,50.00
2022-10-21T20:31:23.475Z,42.70
2022-10-21T20:33:55.668Z,48.20
2022-10-21T20:36:29.409Z,61.80
2022-10-21T20:39:03.136Z,59.80
2022-10-21T20:41:37.589Z,56.70
2022-10-21T20:44:16.203Z,61.90
2022-10-21T20:46:49.186Z,61.00
2022-10-21T20:49:21.548Z,75.10
2022-10-21T20:51:53.780Z,77.90
2022-10-21T20:54:28.246Z,67.40
2022-10-21T20:57:01.072Z,69.50
2022-10-21T20:59:33.244Z,82.90
2022-10-21T21:02:05.572Z,76.20
2022-10-21T21:04:37.660Z,66.80
2022-10-21T21:07:09.907Z,81.20
2022-10-21T21:10:01.618Z,77.80
2022-10-21T21:12:34.357Z,73.50
2022-10-21T21:15:07.769Z,79.70
2022-10-21T21:17:39.945Z,78.00
2022-10-21T21:20:13.376Z,74.30
2022-10-21T21:22:45.584Z,74.20
2022-10-21T21:25:17.896Z,79.30
2022-10-21T21:27:49.965Z,78.50
2022-10-21T21:30:22.208Z,64.10
2022-10-21T21:32:54.424Z,52.30
2022-10-21T21:35:27.009Z,71.20
2022-10-21T21:37:59.287Z,71.10
2022-10-21T21:40:31.492Z,55.70
2022-10-21T21:43:03.730Z,43.50
2022-10-21T21:45:35.908Z,56.00
2022-10-21T21:48:08.668Z,74.70
2022-10-21T21:50:41.179Z,57.10
2022-10-21T21:53:15.521Z,51.10
2022-10-21T21:55:48.096Z,54.70
2022-10-21T21:58:20.233Z,57.70
2022-10-21T22:00:52.327Z,56.50
2022-10-21T22:03:24.621Z,44.00
2022-10-21T22:05:56.740Z,58.60
2022-10-21T22:08:28.912Z,54.80
2022-10-21T22:11:07.149Z,54.00
2022-10-21T22:13:40.020Z,55.00
2022-10-21T22:16:14.230Z,43.20
2022-10-21T22:18:46.792Z,45.90
2022-10-21T22:21:20.708Z,45.30
2022-10-21T22:23:53.535Z,42.60
2022-10-21T22:26:27.739Z,32.90
2022-10-21T22:29:00.142Z,37.20
2022-10-21T22:31:32.322Z,34.90
2022-10-21T22:34:07.798Z,32.10
2022-10-21T22:36:43.296Z,50.50
2022-10-21T22:39:15.447Z,54.00
2022-10-21T22:41:47.587Z,43.20
2022-10-21T22:44:22.254Z,34.50
2022-10-21T22:46:54.391Z,34.80
2022-10-21T22:49:26.699Z,41.70
2022-10-21T22:51:58.828Z,44.10
2022-10-21T22:54:48.642Z,40.40
2022-10-21T22:57:21.554Z,35.90
2022-10-21T22:59:53.810Z,35.20
2022-10-21T23:02:26.095Z,29.70
2022-10-21T23:04:58.249Z,30.40
2022-10-21T23:07:30.475Z,35.50
2022-10-21T23:10:02.663Z,29.80
2022-10-21T23:12:35.030Z,48.80
2022-10-21T23:15:08.929Z,42.10
2022-10-21T23:17:41.117Z,30.60
2022-10-21T23:20:14.895Z,36.10
2022-10-21T23:22:47.065Z,46.20
2022-10-21T23:25:19.707Z,32.80
2022-10-21T23:27:51.971Z,29.40
2022-10-21T23:30:24.376Z,29.40
2022-10-21T23:32:56.545Z,28.30
2022-10-21T23:35:28.793Z,26.30
2022-10-21T23:38:01.152Z,31.40
2022-10-21T23:40:33.416Z,33.40
2022-10-21T23:43:05.589Z,36.10
2022-10-21T23:45:38.534Z,38.00
2022-10-21T23:48:10.913Z,35.30
2022-10-21T23:50:44.701Z,27.00
2022-10-21T23:53:17.161Z,33.40
2022-10-21T23:55:49.442Z,28.40
2022-10-21T23:58:21.581Z,34.10
